createdAt,value
2022-08-05T00:00:46.292Z,17.72
2022-08-05T00:03:15.843Z,17.67
2022-08-05T00:06:05.582Z,17.63
2022-08-05T00:08:37.577Z,17.60
2022-08-05T00:11:20.259Z,17.59
2022-08-05T00:13:53.896Z,17.53
2022-08-05T00:16:36.235Z,17.49
2022-08-05T00:19:21.582Z,17.50
2022-08-05T00:21:52.610Z,17.51
2022-08-05T00:24:24.889Z,17.36
2022-08-05T00:26:59.411Z,17.35
2022-08-05T00:29:38.219Z,17.34
2022-08-05T00:32:13.508Z,17.28
2022-08-05T00:35:03.689Z,17.25
2022-08-05T00:37:51.376Z,17.24
2022-08-05T00:40:28.287Z,17.15
2022-08-05T00:43:07.416Z,17.10
2022-08-05T00:45:38.282Z,17.09
2022-08-05T00:48:08.223Z,17.08
2022-08-05T00:50:37.685Z,17.05
2022-08-05T00:53:09.491Z,17.01
2022-08-05T00:55:55.882Z,17.00
2022-08-05T00:58:27.419Z,16.95
2022-08-05T01:00:56.224Z,16.89
2022-08-05T01:03:30.906Z,16.84
2022-08-05T01:06:05.917Z,16.82
2022-08-05T01:08:44.682Z,16.75
2022-08-05T01:11:21.761Z,16.68
2022-08-05T01:13:59.756Z,16.67
2022-08-05T01:16:30.647Z,16.62
2022-08-05T01:19:02.390Z,16.62
2022-08-05T01:21:54.797Z,16.63
2022-08-05T01:24:47.361Z,16.63
2022-08-05T01:27:26.294Z,16.67
2022-08-05T01:29:57.581Z,16.71
2022-08-05T01:32:28.457Z,16.72
2022-08-05T01:35:02.173Z,16.73
2022-08-05T01:37:36.737Z,16.75
2022-08-05T01:40:17.946Z,16.73
2022-08-05T01:42:47.286Z,16.69
2022-08-05T01:45:20.524Z,16.69
2022-08-05T01:47:55.890Z,16.70
2022-08-05T01:50:28.692Z,16.71
2022-08-05T01:53:01.219Z,16.74
2022-08-05T01:55:32.346Z,16.69
2022-08-05T01:58:10.464Z,16.62
2022-08-05T02:00:46.935Z,16.58
2022-08-05T02:03:29.079Z,16.52
2022-08-05T02:06:03.782Z,16.49
2022-08-05T02:08:58.241Z,16.45
2022-08-05T02:11:33.382Z,16.42
2022-08-05T02:14:04.077Z,16.40
2022-08-05T02:16:36.054Z,16.39
2022-08-05T02:19:10.253Z,16.40
2022-08-05T02:21:46.963Z,16.36
2022-08-05T02:24:23.086Z,16.34
2022-08-05T02:26:56.023Z,16.27
2022-08-05T02:29:58.450Z,16.23
2022-08-05T02:32:23.934Z,16.23
2022-08-05T02:34:59.217Z,16.21
2022-08-05T02:37:32.486Z,16.21
2022-08-05T02:40:02.795Z,16.21
2022-08-05T02:42:36.628Z,16.16
2022-08-05T02:45:06.024Z,16.12
2022-08-05T02:48:07.405Z,16.10
2022-08-05T02:50:27.955Z,16.08
2022-08-05T02:52:59.372Z,16.08
2022-08-05T02:55:54.651Z,16.07
2022-08-05T02:58:17.940Z,16.06
2022-08-05T03:00:49.447Z,16.02
2022-08-05T03:03:20.319Z,15.98
2022-08-05T03:06:55.096Z,15.96
2022-08-05T03:08:44.789Z,15.94
2022-08-05T03:11:56.042Z,15.95
2022-08-05T03:14:08.586Z,16.00
2022-08-05T03:16:42.006Z,16.01
2022-08-05T03:19:20.296Z,16.00
2022-08-05T03:22:02.212Z,16.00
2022-08-05T03:24:35.050Z,16.02
2022-08-05T03:27:04.039Z,16.02
2022-08-05T03:29:44.432Z,16.00
2022-08-05T03:32:15.636Z,15.99
2022-08-05T03:34:50.496Z,15.98
2022-08-05T03:37:20.142Z,15.96
2022-08-05T03:40:00.979Z,15.98
2022-08-05T03:42:52.088Z,15.99
2022-08-05T03:45:23.105Z,16.02
2022-08-05T03:47:57.150Z,16.05
2022-08-05T03:50:30.240Z,16.07
2022-08-05T03:55:49.775Z,16.07
2022-08-05T03:56:05.359Z,16.10
2022-08-05T03:58:46.077Z,16.11
2022-08-05T04:01:21.048Z,16.11
2022-08-05T04:04:05.352Z,16.15
2022-08-05T04:06:42.743Z,16.17
2022-08-05T04:09:26.156Z,16.25
2022-08-05T04:11:56.665Z,16.30
2022-08-05T04:14:31.159Z,16.37
2022-08-05T04:17:02.971Z,16.42
2022-08-05T04:19:42.631Z,16.51
2022-08-05T04:22:15.048Z,16.56
2022-08-05T04:24:52.985Z,16.60
2022-08-05T04:27:41.720Z,16.64
2022-08-05T04:30:12.887Z,16.71
2022-08-05T04:32:42.758Z,16.78
2022-08-05T04:35:17.748Z,16.84
2022-08-05T04:38:00.919Z,16.93
2022-08-05T04:40:35.534Z,17.01
2022-08-05T04:43:11.015Z,17.09
2022-08-05T04:45:48.814Z,17.18
2022-08-05T04:48:27.876Z,17.28
2022-08-05T04:51:03.840Z,17.35
2022-08-05T04:53:44.382Z,17.42
2022-08-05T04:56:33.173Z,17.49
2022-08-05T04:59:01.071Z,17.59
2022-08-05T05:02:06.927Z,17.68
2022-08-05T05:04:43.955Z,17.77
2022-08-05T05:07:17.184Z,17.85
2022-08-05T05:09:47.350Z,17.98
2022-08-05T05:12:19.811Z,18.14
2022-08-05T05:14:53.522Z,18.24
2022-08-05T05:17:24.514Z,18.37
2022-08-05T05:20:13.509Z,18.56
2022-08-05T05:22:44.197Z,18.74
2022-08-05T05:25:16.354Z,18.98
2022-08-05T05:27:53.754Z,19.14
2022-08-05T05:30:30.954Z,19.32
2022-08-05T05:33:09.069Z,19.47
2022-08-05T05:35:45.345Z,19.61
2022-08-05T05:38:14.562Z,19.68
2022-08-05T05:40:49.599Z,19.74
2022-08-05T05:43:47.814Z,19.83
2022-08-05T05:46:17.675Z,19.96
2022-08-05T05:48:50.673Z,20.11
2022-08-05T05:51:28.092Z,20.27
2022-08-05T05:53:59.742Z,20.46
2022-08-05T05:56:35.072Z,20.67
2022-08-05T05:59:08.039Z,20.91
2022-08-05T06:01:40.461Z,21.19
2022-08-05T06:04:29.999Z,21.46
2022-08-05T06:07:08.884Z,21.73
2022-08-05T06:10:00.062Z,21.96
2022-08-05T06:12:33.549Z,22.13
2022-08-05T06:15:11.446Z,22.33
2022-08-05T06:17:52.906Z,22.45
2022-08-05T06:20:24.583Z,22.53
2022-08-05T06:22:58.010Z,22.66
2022-08-05T06:26:12.507Z,22.77
2022-08-05T06:28:23.017Z,23.01
2022-08-05T06:31:00.665Z,23.36
2022-08-05T06:34:06.755Z,23.64
2022-08-05T06:36:37.505Z,23.82
2022-08-05T06:39:21.749Z,23.94
2022-08-05T06:41:51.665Z,24.06
2022-08-05T06:44:22.989Z,24.23
2022-08-05T06:46:54.398Z,24.38
2022-08-05T06:50:00.165Z,24.56
2022-08-05T06:52:38.126Z,24.73
2022-08-05T06:55:07.602Z,24.90
2022-08-05T06:58:02.541Z,25.07
2022-08-05T07:00:27.547Z,25.21
2022-08-05T07:02:58.455Z,25.33
2022-08-05T07:05:37.645Z,25.47
2022-08-05T07:08:18.068Z,25.63
2022-08-05T07:10:47.657Z,25.78
2022-08-05T07:13:57.628Z,25.89
2022-08-05T07:18:00.013Z,26.13
2022-08-05T07:22:30.121Z,26.50
2022-08-05T07:25:23.831Z,26.64
2022-08-05T07:27:57.722Z,26.81
2022-08-05T07:30:38.770Z,26.94
2022-08-05T07:33:16.552Z,27.10
2022-08-05T07:36:01.877Z,27.24
2022-08-05T07:38:42.588Z,27.37
2022-08-05T07:42:07.027Z,27.56
2022-08-05T07:44:05.141Z,27.71
2022-08-05T07:46:35.047Z,27.81
2022-08-05T07:49:07.846Z,27.92
2022-08-05T07:51:48.505Z,28.07
2022-08-05T07:54:26.280Z,28.20
2022-08-05T07:57:01.950Z,28.24
2022-08-05T07:59:46.994Z,28.35
2022-08-05T08:02:22.573Z,28.46
2022-08-05T08:05:00.346Z,28.58
2022-08-05T08:07:39.720Z,28.66
2022-08-05T08:10:20.554Z,28.77
2022-08-05T08:12:50.174Z,28.86
2022-08-05T08:15:37.177Z,28.92
2022-08-05T08:18:14.232Z,29.01
2022-08-05T08:21:02.918Z,29.17
2022-08-05T08:24:01.883Z,29.38
2022-08-05T08:26:27.115Z,29.51
2022-08-05T08:29:21.508Z,29.57
2022-08-05T08:31:50.777Z,29.68
2022-08-05T08:34:30.719Z,29.82
2022-08-05T08:37:05.075Z,29.94
2022-08-05T08:39:37.764Z,30.01
2022-08-05T08:42:27.582Z,30.11
2022-08-05T08:45:17.974Z,30.24
2022-08-05T08:48:06.981Z,30.36
2022-08-05T08:51:03.238Z,30.46
2022-08-05T08:53:35.199Z,30.56
2022-08-05T08:56:06.049Z,30.69
2022-08-05T08:58:43.231Z,30.73
2022-08-05T09:01:17.491Z,30.81
2022-08-05T09:03:48.373Z,30.89
2022-08-05T09:06:29.318Z,30.97
2022-08-05T09:09:04.240Z,31.07
2022-08-05T09:11:53.397Z,31.17
2022-08-05T09:14:57.765Z,31.28
2022-08-05T09:17:42.577Z,31.46
2022-08-05T09:20:08.480Z,31.62
2022-08-05T09:22:56.136Z,31.68
2022-08-05T09:26:02.703Z,31.79
2022-08-05T09:28:32.066Z,31.82
2022-08-05T09:31:23.024Z,31.90
2022-08-05T09:33:56.419Z,32.05
2022-08-05T09:36:33.138Z,32.15
2022-08-05T09:39:03.007Z,32.28
2022-08-05T09:41:39.105Z,32.43
2022-08-05T09:44:13.327Z,32.54
2022-08-05T09:46:53.511Z,32.75
2022-08-05T09:49:54.651Z,32.78
2022-08-05T09:52:25.531Z,32.86
2022-08-05T09:54:55.126Z,32.79
2022-08-05T09:57:35.328Z,32.81
2022-08-05T10:00:12.053Z,32.89
2022-08-05T10:02:43.702Z,32.99
2022-08-05T10:05:14.773Z,33.09
2022-08-05T10:08:36.831Z,33.28
2022-08-05T10:10:54.198Z,33.31
2022-08-05T10:13:47.728Z,33.40
2022-08-05T10:16:32.255Z,33.49
2022-08-05T10:19:08.569Z,33.57
2022-08-05T10:21:40.382Z,33.67
2022-08-05T10:24:11.079Z,33.62
2022-08-05T10:26:51.277Z,33.11
2022-08-05T10:30:06.387Z,33.09
2022-08-05T10:32:52.386Z,33.30
2022-08-05T10:35:08.665Z,33.53
2022-08-05T10:37:44.275Z,33.70
2022-08-05T10:40:18.698Z,33.73
2022-08-05T10:42:52.263Z,33.91
2022-08-05T10:45:40.071Z,34.04
2022-08-05T10:48:36.084Z,34.36
2022-08-05T10:51:22.295Z,34.22
2022-08-05T10:53:55.560Z,33.93
2022-08-05T10:56:26.015Z,33.83
2022-08-05T10:59:12.458Z,34.07
2022-08-05T11:01:54.487Z,34.20
2022-08-05T11:04:32.738Z,34.38
2022-08-05T11:07:06.979Z,34.48
2022-08-05T11:09:45.308Z,34.66
2022-08-05T11:12:33.562Z,34.76
2022-08-05T11:15:19.197Z,34.84
2022-08-05T11:17:59.655Z,34.96
2022-08-05T11:20:51.689Z,34.79
2022-08-05T11:23:33.208Z,34.82
2022-08-05T11:26:09.004Z,34.88
2022-08-05T11:28:45.915Z,34.78
2022-08-05T11:31:57.202Z,34.99
2022-08-05T11:34:36.836Z,35.14
2022-08-05T11:38:26.694Z,34.73
2022-08-05T11:40:00.721Z,34.73
2022-08-05T11:42:37.856Z,34.80
2022-08-05T11:45:14.369Z,35.01
2022-08-05T11:47:56.229Z,35.28
2022-08-05T11:50:26.894Z,35.47
2022-08-05T11:52:58.244Z,35.68
2022-08-05T11:55:32.248Z,35.66
2022-08-05T11:58:10.968Z,35.67
2022-08-05T12:00:44.415Z,35.89
2022-08-05T12:03:23.857Z,35.87
2022-08-05T12:06:10.738Z,35.50
2022-08-05T12:08:51.088Z,35.22
2022-08-05T12:11:23.029Z,35.25
2022-08-05T12:13:58.688Z,35.22
2022-08-05T12:16:38.502Z,35.44
2022-08-05T12:19:08.608Z,35.66
2022-08-05T12:21:44.871Z,35.68
2022-08-05T12:24:17.278Z,35.86
2022-08-05T12:26:50.373Z,36.10
2022-08-05T12:29:23.034Z,36.12
2022-08-05T12:31:53.137Z,36.05
2022-08-05T12:34:25.809Z,35.98
2022-08-05T12:36:56.595Z,35.94
2022-08-05T12:39:27.973Z,35.88
2022-08-05T12:42:10.515Z,35.87
2022-08-05T12:44:44.782Z,36.06
2022-08-05T12:47:17.085Z,36.08
2022-08-05T12:50:04.595Z,36.13
2022-08-05T12:52:41.933Z,36.28
2022-08-05T12:55:22.578Z,36.38
2022-08-05T12:58:49.212Z,35.92
2022-08-05T13:02:02.843Z,35.36
2022-08-05T13:03:32.999Z,35.26
2022-08-05T13:06:02.096Z,35.24
2022-08-05T13:08:32.718Z,35.24
2022-08-05T13:11:04.117Z,35.38
2022-08-05T13:14:05.103Z,35.56
2022-08-05T13:16:27.790Z,35.62
2022-08-05T13:18:58.658Z,35.46
2022-08-05T13:21:37.522Z,35.40
2022-08-05T13:24:11.382Z,35.47
2022-08-05T13:26:43.714Z,35.35
2022-08-05T13:29:37.814Z,35.38
2022-08-05T13:32:07.520Z,35.35
2022-08-05T13:34:36.102Z,35.40
2022-08-05T13:37:07.116Z,35.49
2022-08-05T13:40:15.130Z,35.51
2022-08-05T13:42:26.648Z,35.47
2022-08-05T13:44:59.505Z,35.37
2022-08-05T13:47:36.056Z,35.35
2022-08-05T13:50:18.306Z,35.09
2022-08-05T13:52:46.717Z,35.03
2022-08-05T13:55:41.054Z,35.05
2022-08-05T13:58:11.218Z,34.89
2022-08-05T14:00:42.016Z,34.89
2022-08-05T14:03:16.267Z,34.95
2022-08-05T14:06:04.787Z,35.00
2022-08-05T14:08:35.932Z,35.01
2022-08-05T14:11:20.468Z,34.69
2022-08-05T14:13:54.945Z,34.55
2022-08-05T14:16:25.641Z,34.50
2022-08-05T14:18:54.641Z,34.51
2022-08-05T14:22:09.257Z,34.50
2022-08-05T14:24:13.328Z,34.47
2022-08-05T14:27:08.761Z,34.39
2022-08-05T14:29:43.229Z,34.32
2022-08-05T14:32:26.573Z,34.12
2022-08-05T14:34:56.949Z,33.97
2022-08-05T14:37:45.453Z,33.94
2022-08-05T14:40:17.231Z,33.96
2022-08-05T14:42:47.955Z,33.83
2022-08-05T14:45:18.279Z,33.69
2022-08-05T14:48:02.971Z,33.56
2022-08-05T14:50:40.737Z,33.40
2022-08-05T14:53:09.405Z,33.31
2022-08-05T14:55:40.089Z,33.30
2022-08-05T14:58:13.844Z,33.28
2022-08-05T15:00:58.932Z,33.21
2022-08-05T15:03:33.147Z,33.12
2022-08-05T15:06:15.092Z,33.06
2022-08-05T15:08:59.688Z,33.01
2022-08-05T15:11:51.005Z,32.93
2022-08-05T15:14:34.804Z,32.89
2022-08-05T15:17:44.214Z,32.82
2022-08-05T15:19:59.284Z,32.75
2022-08-05T15:22:28.455Z,32.70
2022-08-05T15:25:13.622Z,32.60
2022-08-05T15:27:52.518Z,32.55
2022-08-05T15:30:24.596Z,32.50
2022-08-05T15:32:55.724Z,32.45
2022-08-05T15:35:36.191Z,32.40
2022-08-05T15:38:36.093Z,32.34
2022-08-05T15:41:22.288Z,32.26
2022-08-05T15:43:51.855Z,32.15
2022-08-05T15:46:25.211Z,32.05
2022-08-05T15:48:58.631Z,31.97
2022-08-05T15:52:12.596Z,31.87
2022-08-05T15:54:34.802Z,31.77
2022-08-05T15:57:07.597Z,31.75
2022-08-05T15:59:42.787Z,31.58
2022-08-05T16:02:27.785Z,31.46
2022-08-05T16:05:00.175Z,31.42
2022-08-05T16:07:32.024Z,31.37
2022-08-05T16:10:03.596Z,31.30
2022-08-05T16:12:34.387Z,31.15
2022-08-05T16:15:02.941Z,31.04
2022-08-05T16:17:34.385Z,30.89
2022-08-05T16:20:11.199Z,30.78
2022-08-05T16:22:40.821Z,30.64
2022-08-05T16:25:16.181Z,30.54
2022-08-05T16:28:04.894Z,30.51
2022-08-05T16:30:37.258Z,30.52
2022-08-05T16:33:07.514Z,30.46
2022-08-05T16:35:42.268Z,30.40
2022-08-05T16:38:24.471Z,30.35
2022-08-05T16:41:00.454Z,30.29
2022-08-05T16:43:30.537Z,30.20
2022-08-05T16:46:03.673Z,30.12
2022-08-05T16:48:39.499Z,30.02
2022-08-05T16:51:10.087Z,29.91
2022-08-05T16:54:04.304Z,29.82
2022-08-05T16:56:29.544Z,29.75
2022-08-05T16:59:00.760Z,29.71
2022-08-05T17:01:52.956Z,29.65
2022-08-05T17:04:26.559Z,29.55
2022-08-05T17:07:00.106Z,29.48
2022-08-05T17:09:30.549Z,29.39
2022-08-05T17:12:08.352Z,29.30
2022-08-05T17:14:41.325Z,29.25
2022-08-05T17:17:15.127Z,29.20
2022-08-05T17:19:46.499Z,29.15
2022-08-05T17:22:25.422Z,29.06
2022-08-05T17:24:56.839Z,28.99
2022-08-05T17:27:26.564Z,28.92
2022-08-05T17:30:02.201Z,28.84
2022-08-05T17:32:34.761Z,28.77
2022-08-05T17:35:05.905Z,28.69
2022-08-05T17:37:41.836Z,28.57
2022-08-05T17:40:17.464Z,28.47
2022-08-05T17:42:51.060Z,28.37
2022-08-05T17:45:21.820Z,28.27
2022-08-05T17:47:55.330Z,28.15
2022-08-05T17:50:28.020Z,28.00
2022-08-05T17:52:59.506Z,27.89
2022-08-05T17:55:38.081Z,27.80
2022-08-05T17:58:11.150Z,27.65
2022-08-05T18:00:50.595Z,27.50
2022-08-05T18:03:48.408Z,27.40
2022-08-05T18:06:15.269Z,27.21
2022-08-05T18:08:52.730Z,27.06
2022-08-05T18:11:23.197Z,26.89
2022-08-05T18:13:54.502Z,26.71
2022-08-05T18:16:25.955Z,26.55
2022-08-05T18:18:54.398Z,26.38
2022-08-05T18:21:28.136Z,26.21
2022-08-05T18:24:15.630Z,26.06
2022-08-05T18:26:44.842Z,25.93
2022-08-05T18:29:17.394Z,25.82
2022-08-05T18:32:06.145Z,25.72
2022-08-05T18:34:41.085Z,25.60
2022-08-05T18:37:12.706Z,25.47
2022-08-05T18:40:33.753Z,25.32
2022-08-05T18:42:52.108Z,25.21
2022-08-05T18:45:20.960Z,25.13
2022-08-05T18:47:56.269Z,25.05
2022-08-05T18:50:45.461Z,24.98
2022-08-05T18:53:22.686Z,24.90
2022-08-05T18:55:54.557Z,24.83
2022-08-05T18:58:28.681Z,24.71
2022-08-05T19:00:57.784Z,24.57
2022-08-05T19:03:52.757Z,24.45
2022-08-05T19:06:21.895Z,24.31
2022-08-05T19:09:05.301Z,24.19
2022-08-05T19:11:59.412Z,24.11
2022-08-05T19:14:53.480Z,24.01
2022-08-05T19:17:14.158Z,23.95
2022-08-05T19:19:47.023Z,23.86
2022-08-05T19:22:17.845Z,23.78
2022-08-05T19:24:56.234Z,23.69
2022-08-05T19:27:30.679Z,23.61
2022-08-05T19:30:01.379Z,23.50
2022-08-05T19:32:33.424Z,23.42
2022-08-05T19:35:06.517Z,23.30
2022-08-05T19:38:04.592Z,23.21
2022-08-05T19:40:26.097Z,23.13
2022-08-05T19:43:00.741Z,23.11
2022-08-05T19:45:36.964Z,23.00
2022-08-05T19:48:06.352Z,22.93
2022-08-05T19:50:38.228Z,22.88
2022-08-05T19:53:09.690Z,22.85
2022-08-05T19:56:14.734Z,22.83
2022-08-05T19:58:30.326Z,22.80
2022-08-05T20:01:01.962Z,22.75
2022-08-05T20:03:40.876Z,22.68
2022-08-05T20:06:14.815Z,22.59
2022-08-05T20:08:47.407Z,22.55
2022-08-05T20:11:19.981Z,22.54
2022-08-05T20:13:58.681Z,22.51
2022-08-05T20:16:43.217Z,22.45
2022-08-05T20:19:12.179Z,22.35
2022-08-05T20:21:44.674Z,22.31
2022-08-05T20:24:14.487Z,22.25
2022-08-05T20:26:45.857Z,22.19
2022-08-05T20:29:26.807Z,22.12
2022-08-05T20:31:58.281Z,22.11
2022-08-05T20:34:28.171Z,22.07
2022-08-05T20:36:56.563Z,22.03
2022-08-05T20:39:36.765Z,21.97
2022-08-05T20:42:07.633Z,21.99
2022-08-05T20:44:40.528Z,22.02
2022-08-05T20:47:10.056Z,21.99
2022-08-05T20:49:39.967Z,21.91
2022-08-05T20:52:10.756Z,21.87
2022-08-05T20:54:59.764Z,21.85
2022-08-05T20:57:44.107Z,21.74
2022-08-05T21:00:40.235Z,21.71
2022-08-05T21:03:07.449Z,21.71
2022-08-05T21:05:54.286Z,21.68
2022-08-05T21:08:28.184Z,21.68
2022-08-05T21:11:11.811Z,21.64
2022-08-05T21:13:55.889Z,21.59
2022-08-05T21:16:29.358Z,21.54
2022-08-05T21:19:01.529Z,21.52
2022-08-05T21:21:39.895Z,21.46
2022-08-05T21:24:15.459Z,21.42
2022-08-05T21:26:53.434Z,21.45
2022-08-05T21:29:40.684Z,21.49
2022-08-05T21:32:09.592Z,21.39
2022-08-05T21:34:56.089Z,21.35
2022-08-05T21:37:40.995Z,21.39
2022-08-05T21:40:14.415Z,21.41
2022-08-05T21:42:45.855Z,21.40
2022-08-05T21:45:24.048Z,21.35
2022-08-05T21:47:57.754Z,21.34
2022-08-05T21:50:26.572Z,21.34
2022-08-05T21:52:58.929Z,21.34
2022-08-05T21:56:01.519Z,21.32
2022-08-05T21:58:24.892Z,21.38
2022-08-05T22:01:02.061Z,21.33
2022-08-05T22:03:51.941Z,21.29
2022-08-05T22:06:22.981Z,21.38
2022-08-05T22:09:13.339Z,21.29
2022-08-05T22:11:47.102Z,21.23
2022-08-05T22:14:35.532Z,21.21
2022-08-05T22:17:07.641Z,21.20
2022-08-05T22:20:01.554Z,21.18
2022-08-05T22:22:27.064Z,21.13
2022-08-05T22:25:21.607Z,21.16
2022-08-05T22:28:08.276Z,21.15
2022-08-05T22:30:55.612Z,21.11
2022-08-05T22:33:55.491Z,21.05
2022-08-05T22:36:16.246Z,20.96
2022-08-05T22:38:48.572Z,20.93
2022-08-05T22:41:26.187Z,20.92
2022-08-05T22:44:06.999Z,20.93
2022-08-05T22:46:40.206Z,20.89
2022-08-05T22:49:23.030Z,20.92
2022-08-05T22:52:05.287Z,20.89
2022-08-05T22:54:36.513Z,20.89
2022-08-05T22:57:05.124Z,20.88
2022-08-05T22:59:44.236Z,20.85
2022-08-05T23:02:17.553Z,20.83
2022-08-05T23:04:52.196Z,20.79
2022-08-05T23:07:22.232Z,20.77
2022-08-05T23:09:57.281Z,20.72
2022-08-05T23:12:29.042Z,20.70
2022-08-05T23:15:03.047Z,20.66
2022-08-05T23:17:32.743Z,20.67
2022-08-05T23:20:05.673Z,20.67
2022-08-05T23:22:39.668Z,20.73
2022-08-05T23:25:08.666Z,20.62
2022-08-05T23:27:57.766Z,20.55
2022-08-05T23:30:31.333Z,20.51
2022-08-05T23:33:01.755Z,20.51
2022-08-05T23:35:34.426Z,20.54
2022-08-05T23:38:03.747Z,20.51
2022-08-05T23:40:34.631Z,20.48
2022-08-05T23:43:11.388Z,20.48
2022-08-05T23:45:52.324Z,20.42
2022-08-05T23:48:21.094Z,20.36
2022-08-05T23:50:56.131Z,20.33
2022-08-05T23:53:28.536Z,20.29
2022-08-05T23:56:20.183Z,20.25
2022-08-05T23:58:58.533Z,20.19
